Погода Лукхнауна неделю

Карас, Намибия

05 - 11 марта
  • 05марта
    Сегодня
    +14°
    +26°
    Ясно и безоблачно
    ВремяПогодаТемператураВлажностьДавлениеВетер, м/сВероятность осадков
    02:00Ясно и безоблачно+19°C73 %755 мм6.2 м/с5 %
    05:00Ясно и безоблачно+18°C72 %754 мм6.0 м/с5 %
    08:00Ясно и безоблачно+17°C68 %755 мм4.8 м/с5 %
    11:00Ясно и безоблачно+25°C54 %755 мм8.7 м/с5 %
    14:00Ясно и безоблачно+25°C55 %754 мм10.7 м/с5 %
    17:00Небольшая облачность+23°C58 %753 мм9.5 м/с5 %
    20:00Ясно и безоблачно+19°C77 %754 мм6.3 м/с5 %
    23:00Ясно и безоблачно+19°C75 %755 мм6.7 м/с5 %
  • 06марта
    Среда
    +16°
    +27°
    Ясно и безоблачно
    ВремяПогодаТемператураВлажностьДавлениеВетер, м/сВероятность осадков
    02:00Ясно и безоблачно+18°C78 %754 мм5.2 м/с5 %
    05:00Ясно и безоблачно+16°C83 %753 мм1.9 м/с5 %
    08:00Ясно и безоблачно+16°C82 %754 мм1.2 м/с5 %
    11:00Ясно и безоблачно+23°C61 %755 мм3.0 м/с5 %
    14:00Ясно и безоблачно+25°C54 %754 мм5.8 м/с5 %
    17:00Ясно и безоблачно+24°C63 %754 мм7.2 м/с5 %
    20:00Ясно и безоблачно+20°C80 %755 мм4.3 м/с5 %
    23:00Ясно и безоблачно+19°C88 %756 мм2.8 м/с5 %
  • 07марта
    Четверг
    +19°
    +27°
    Ясно и безоблачно
    ВремяПогодаТемператураВлажностьДавлениеВетер, м/сВероятность осадков
    02:00Ясно и безоблачно+18°C96 %756 мм1.0 м/с5 %
    05:00Ясно и безоблачно+16°C98 %755 мм1.1 м/с5 %
    08:00Небольшая облачность+17°C91 %756 мм1.0 м/с5 %
    11:00Ясно и безоблачно+25°C51 %757 мм4.2 м/с5 %
    14:00Ясно и безоблачно+26°C34 %755 мм7.7 м/с5 %
    17:00Ясно и безоблачно+26°C42 %755 мм7.7 м/с5 %
    20:00Ясно и безоблачно+20°C67 %755 мм6.2 м/с5 %
    23:00Ясно и безоблачно+20°C64 %756 мм6.2 м/с5 %
  • 08марта
    Пятница
    +17°
    +30°
    Ясно и безоблачно
    ВремяПогодаТемператураВлажностьДавлениеВетер, м/сВероятность осадков
    02:00Ясно и безоблачно+20°C60 %755 мм5.2 м/с5 %
    05:00Ясно и безоблачно+18°C56 %754 мм4.5 м/с5 %
    08:00Ясно и безоблачно+19°C46 %755 мм2.5 м/с5 %
    11:00Ясно и безоблачно+27°C36 %755 мм5.2 м/с5 %
    14:00Ясно и безоблачно+28°C46 %753 мм10.1 м/с5 %
    17:00Ясно и безоблачно+26°C60 %752 мм10.6 м/с5 %
    20:00Ясно и безоблачно+21°C81 %753 мм8.0 м/с5 %
    23:00Ясно и безоблачно+21°C80 %753 мм8.7 м/с5 %
Мы используем cookies
Соглашаюсь